sensor_id;sensor_type;location;lat;lon;timestamp;pressure;altitude;pressure_sealevel;temperature;humidity
37710;BME280;60223;34.854;-92.408;2023-03-05T00:01:25;100680.70;;;24.44;28.62
37710;BME280;60223;34.854;-92.408;2023-03-05T00:03:51;100677.65;;;24.37;28.72
37710;BME280;60223;34.854;-92.408;2023-03-05T00:06:15;100678.58;;;24.71;28.86
37710;BME280;60223;34.854;-92.408;2023-03-05T00:08:42;100678.66;;;23.63;29.35
37710;BME280;60223;34.854;-92.408;2023-03-05T00:11:08;100680.73;;;24.09;29.43
37710;BME280;60223;34.854;-92.408;2023-03-05T00:13:33;100681.90;;;23.06;30.49
37710;BME280;60223;34.854;-92.408;2023-03-05T00:16:01;100680.91;;;22.11;31.64
37710;BME280;60223;34.854;-92.408;2023-03-05T00:18:24;100680.52;;;21.96;31.83
37710;BME280;60223;34.854;-92.408;2023-03-05T00:20:50;100678.03;;;21.23;32.72
37710;BME280;60223;34.854;-92.408;2023-03-05T00:23:14;100679.05;;;21.04;32.61
37710;BME280;60223;34.854;-92.408;2023-03-05T00:25:41;100675.70;;;20.60;33.15
37710;BME280;60223;34.854;-92.408;2023-03-05T00:28:07;100675.87;;;20.11;33.85
37710;BME280;60223;34.854;-92.408;2023-03-05T00:30:33;100674.99;;;20.49;33.55
37710;BME280;60223;34.854;-92.408;2023-03-05T00:32:58;100677.19;;;20.13;34.12
37710;BME280;60223;34.854;-92.408;2023-03-05T00:35:22;100684.67;;;20.14;34.09
37710;BME280;60223;34.854;-92.408;2023-03-05T00:37:50;100693.90;;;20.66;33.78
37710;BME280;60223;34.854;-92.408;2023-03-05T00:40:16;100694.85;;;20.28;34.19
37710;BME280;60223;34.854;-92.408;2023-03-05T00:42:41;100700.40;;;20.33;34.08
37710;BME280;60223;34.854;-92.408;2023-03-05T00:45:08;100705.50;;;20.05;34.34
37710;BME280;60223;34.854;-92.408;2023-03-05T00:47:31;100709.15;;;20.01;34.31
37710;BME280;60223;34.854;-92.408;2023-03-05T00:49:58;100711.82;;;20.43;34.37
37710;BME280;60223;34.854;-92.408;2023-03-05T00:52:24;100713.52;;;19.82;34.82
37710;BME280;60223;34.854;-92.408;2023-03-05T00:54:50;100717.98;;;19.67;34.87
37710;BME280;60223;34.854;-92.408;2023-03-05T00:57:15;100726.41;;;19.78;35.03
37710;BME280;60223;34.854;-92.408;2023-03-05T00:59:41;100729.07;;;19.73;35.87
37710;BME280;60223;34.854;-92.408;2023-03-05T01:02:07;100731.21;;;19.96;35.66
37710;BME280;60223;34.854;-92.408;2023-03-05T01:04:31;100727.63;;;19.79;35.65
37710;BME280;60223;34.854;-92.408;2023-03-05T01:06:58;100725.33;;;20.01;35.64
37710;BME280;60223;34.854;-92.408;2023-03-05T01:09:24;100729.78;;;20.09;35.49
37710;BME280;60223;34.854;-92.408;2023-03-05T01:11:50;100731.64;;;20.05;35.31
37710;BME280;60223;34.854;-92.408;2023-03-05T01:14:14;100739.09;;;20.35;35.45
37710;BME280;60223;34.854;-92.408;2023-03-05T01:16:41;100741.21;;;19.47;35.97
37710;BME280;60223;34.854;-92.408;2023-03-05T01:19:06;100743.91;;;19.59;36.06
37710;BME280;60223;34.854;-92.408;2023-03-05T01:21:33;100749.40;;;19.74;35.90
37710;BME280;60223;34.854;-92.408;2023-03-05T01:23:58;100749.13;;;19.35;36.09
37710;BME280;60223;34.854;-92.408;2023-03-05T01:26:24;100744.28;;;19.64;35.90
37710;BME280;60223;34.854;-92.408;2023-03-05T01:28:48;100745.19;;;19.54;36.25
37710;BME280;60223;34.854;-92.408;2023-03-05T01:31:16;100744.52;;;19.91;35.98
37710;BME280;60223;34.854;-92.408;2023-03-05T01:33:40;100748.31;;;19.71;35.98
37710;BME280;60223;34.854;-92.408;2023-03-05T01:36:11;100753.81;;;19.52;36.00
37710;BME280;60223;34.854;-92.408;2023-03-05T01:38:31;100757.41;;;19.57;36.40
37710;BME280;60223;34.854;-92.408;2023-03-05T01:40:56;100764.41;;;19.72;36.08
37710;BME280;60223;34.854;-92.408;2023-03-05T01:43:29;100768.76;;;19.95;36.15
37710;BME280;60223;34.854;-92.408;2023-03-05T01:48:15;100772.47;;;19.72;36.25
37710;BME280;60223;34.854;-92.408;2023-03-05T01:50:40;100772.47;;;20.04;35.91
37710;BME280;60223;34.854;-92.408;2023-03-05T01:53:07;100776.39;;;19.45;36.30
37710;BME280;60223;34.854;-92.408;2023-03-05T02:05:18;100774.24;;;19.88;35.96
37710;BME280;60223;34.854;-92.408;2023-03-05T02:07:41;100771.53;;;19.90;35.88
37710;BME280;60223;34.854;-92.408;2023-03-05T02:10:15;100772.07;;;19.39;36.33
37710;BME280;60223;34.854;-92.408;2023-03-05T02:12:31;100772.86;;;19.62;36.57
37710;BME280;60223;34.854;-92.408;2023-03-05T02:14:57;100774.31;;;19.81;36.09
37710;BME280;60223;34.854;-92.408;2023-03-05T02:17:24;100772.50;;;19.72;36.13
37710;BME280;60223;34.854;-92.408;2023-03-05T02:19:51;100774.13;;;20.06;36.01
37710;BME280;60223;34.854;-92.408;2023-03-05T02:22:18;100783.76;;;19.78;36.36
37710;BME280;60223;34.854;-92.408;2023-03-05T02:24:40;100787.97;;;19.98;36.13
37710;BME280;60223;34.854;-92.408;2023-03-05T02:27:07;100789.42;;;19.69;35.91
37710;BME280;60223;34.854;-92.408;2023-03-05T02:29:33;100792.27;;;20.03;35.94
37710;BME280;60223;34.854;-92.408;2023-03-05T02:31:56;100795.14;;;19.92;36.28
37710;BME280;60223;34.854;-92.408;2023-03-05T02:34:23;100796.60;;;19.56;36.44
37710;BME280;60223;34.854;-92.408;2023-03-05T02:36:48;100800.95;;;19.78;36.17
37710;BME280;60223;34.854;-92.408;2023-03-05T02:39:15;100806.53;;;19.59;36.44
37710;BME280;60223;34.854;-92.408;2023-03-05T02:41:39;100808.31;;;19.89;36.37
37710;BME280;60223;34.854;-92.408;2023-03-05T02:44:06;100806.11;;;19.94;36.20
37710;BME280;60223;34.854;-92.408;2023-03-05T02:46:31;100808.75;;;19.62;36.31
37710;BME280;60223;34.854;-92.408;2023-03-05T02:48:57;100810.88;;;19.89;36.27
37710;BME280;60223;34.854;-92.408;2023-03-05T02:51:23;100813.16;;;19.95;36.34
37710;BME280;60223;34.854;-92.408;2023-03-05T02:53:49;100821.04;;;20.01;36.28
37710;BME280;60223;34.854;-92.408;2023-03-05T02:56:13;100829.87;;;19.78;36.31
37710;BME280;60223;34.854;-92.408;2023-03-05T02:58:40;100835.29;;;21.04;35.15
37710;BME280;60223;34.854;-92.408;2023-03-05T03:01:05;100834.97;;;20.49;35.71
37710;BME280;60223;34.854;-92.408;2023-03-05T03:03:31;100839.10;;;19.76;36.22
37710;BME280;60223;34.854;-92.408;2023-03-05T03:05:57;100839.42;;;20.03;36.06
37710;BME280;60223;34.854;-92.408;2023-03-05T03:08:20;100845.66;;;20.03;36.08
37710;BME280;60223;34.854;-92.408;2023-03-05T03:10:48;100846.53;;;19.62;36.22
37710;BME280;60223;34.854;-92.408;2023-03-05T03:13:14;100849.86;;;20.15;36.08
37710;BME280;60223;34.854;-92.408;2023-03-05T03:15:40;100853.98;;;20.18;36.08
37710;BME280;60223;34.854;-92.408;2023-03-05T03:18:04;100857.34;;;20.28;36.10
37710;BME280;60223;34.854;-92.408;2023-03-05T03:20:31;100858.89;;;20.13;35.85
37710;BME280;60223;34.854;-92.408;2023-03-05T03:22:57;100864.93;;;20.13;36.06
37710;BME280;60223;34.854;-92.408;2023-03-05T03:25:24;100868.98;;;20.03;36.35
37710;BME280;60223;34.854;-92.408;2023-03-05T03:27:48;100875.67;;;19.86;36.43
37710;BME280;60223;34.854;-92.408;2023-03-05T03:30:14;100880.22;;;20.60;35.86
37710;BME280;60223;34.854;-92.408;2023-03-05T03:32:39;100878.96;;;20.40;35.54
37710;BME280;60223;34.854;-92.408;2023-03-05T03:35:04;100880.99;;;20.30;35.79
37710;BME280;60223;34.854;-92.408;2023-03-05T03:37:31;100884.89;;;20.14;36.64
37710;BME280;60223;34.854;-92.408;2023-03-05T03:39:57;100883.96;;;20.02;36.57
37710;BME280;60223;34.854;-92.408;2023-03-05T03:42:22;100883.68;;;19.78;36.57
37710;BME280;60223;34.854;-92.408;2023-03-05T03:44:49;100885.68;;;20.06;36.88
37710;BME280;60223;34.854;-92.408;2023-03-05T03:47:14;100887.74;;;19.45;37.05
37710;BME280;60223;34.854;-92.408;2023-03-05T03:49:39;100889.87;;;19.72;37.35
37710;BME280;60223;34.854;-92.408;2023-03-05T03:52:03;100891.16;;;20.56;36.45
37710;BME280;60223;34.854;-92.408;2023-03-05T03:54:31;100891.98;;;20.65;36.00
37710;BME280;60223;34.854;-92.408;2023-03-05T03:56:56;100896.88;;;20.35;35.99
37710;BME280;60223;34.854;-92.408;2023-03-05T03:59:22;100893.15;;;19.89;37.09
37710;BME280;60223;34.854;-92.408;2023-03-05T04:01:48;100898.74;;;19.70;36.91
37710;BME280;60223;34.854;-92.408;2023-03-05T04:04:12;100900.91;;;19.94;36.70
37710;BME280;60223;34.854;-92.408;2023-03-05T04:06:39;100900.74;;;20.19;36.71
37710;BME280;60223;34.854;-92.408;2023-03-05T04:09:05;100899.71;;;19.69;37.12
37710;BME280;60223;34.854;-92.408;2023-03-05T04:11:30;100896.26;;;19.75;37.36
37710;BME280;60223;34.854;-92.408;2023-03-05T04:13:56;100897.66;;;19.36;37.91
37710;BME280;60223;34.854;-92.408;2023-03-05T04:16:21;100901.97;;;19.46;38.10
37710;BME280;60223;34.854;-92.408;2023-03-05T04:18:48;100901.01;;;19.06;38.30
37710;BME280;60223;34.854;-92.408;2023-03-05T04:21:14;100896.86;;;20.21;36.59
37710;BME280;60223;34.854;-92.408;2023-03-05T04:23:39;100900.16;;;19.80;36.92
37710;BME280;60223;34.854;-92.408;2023-03-05T04:26:05;100896.89;;;19.86;36.33
37710;BME280;60223;34.854;-92.408;2023-03-05T04:28:31;100897.77;;;19.46;36.95
37710;BME280;60223;34.854;-92.408;2023-03-05T04:30:56;100906.42;;;19.80;37.35
37710;BME280;60223;34.854;-92.408;2023-03-05T04:33:21;100913.11;;;20.31;36.85
37710;BME280;60223;34.854;-92.408;2023-03-05T04:35:48;100911.28;;;20.02;36.92
37710;BME280;60223;34.854;-92.408;2023-03-05T04:38:13;100917.14;;;19.57;37.51
37710;BME280;60223;34.854;-92.408;2023-03-05T04:40:39;100916.93;;;19.13;37.80
37710;BME280;60223;34.854;-92.408;2023-03-05T04:43:04;100915.50;;;19.04;38.15
37710;BME280;60223;34.854;-92.408;2023-03-05T04:45:30;100915.08;;;19.28;38.24
37710;BME280;60223;34.854;-92.408;2023-03-05T04:47:56;100912.66;;;19.22;38.35
37710;BME280;60223;34.854;-92.408;2023-03-05T04:50:20;100915.65;;;19.35;38.41
37710;BME280;60223;34.854;-92.408;2023-03-05T04:52:48;100913.12;;;19.62;37.83
37710;BME280;60223;34.854;-92.408;2023-03-05T04:55:14;100912.89;;;19.86;37.10
37710;BME280;60223;34.854;-92.408;2023-03-05T04:57:38;100909.27;;;20.42;36.47
37710;BME280;60223;34.854;-92.408;2023-03-05T05:00:06;100911.65;;;19.33;37.52
37710;BME280;60223;34.854;-92.408;2023-03-05T05:02:29;100911.35;;;19.26;37.80
37710;BME280;60223;34.854;-92.408;2023-03-05T05:04:56;100915.43;;;19.89;37.38
37710;BME280;60223;34.854;-92.408;2023-03-05T05:07:21;100916.60;;;19.47;37.25
37710;BME280;60223;34.854;-92.408;2023-03-05T05:10:03;100924.12;;;19.29;37.69
37710;BME280;60223;34.854;-92.408;2023-03-05T05:12:13;100926.23;;;19.33;37.99
37710;BME280;60223;34.854;-92.408;2023-03-05T05:14:39;100932.48;;;19.47;38.20
37710;BME280;60223;34.854;-92.408;2023-03-05T05:17:04;100936.19;;;18.86;38.43
37710;BME280;60223;34.854;-92.408;2023-03-05T05:19:30;100933.81;;;19.37;38.37
37710;BME280;60223;34.854;-92.408;2023-03-05T05:21:56;100935.25;;;19.09;38.36
37710;BME280;60223;34.854;-92.408;2023-03-05T05:24:20;100932.33;;;19.16;38.21
37710;BME280;60223;34.854;-92.408;2023-03-05T05:26:47;100930.62;;;18.92;38.90
37710;BME280;60223;34.854;-92.408;2023-03-05T05:29:13;100929.89;;;18.91;38.85
37710;BME280;60223;34.854;-92.408;2023-03-05T05:31:38;100928.88;;;18.62;38.92
37710;BME280;60223;34.854;-92.408;2023-03-05T05:34:04;100927.54;;;18.83;38.97
37710;BME280;60223;34.854;-92.408;2023-03-05T05:36:30;100930.17;;;18.74;39.01
37710;BME280;60223;34.854;-92.408;2023-03-05T05:38:56;100933.98;;;19.17;38.63
37710;BME280;60223;34.854;-92.408;2023-03-05T05:41:20;100933.31;;;19.23;38.23
37710;BME280;60223;34.854;-92.408;2023-03-05T05:43:45;100926.22;;;19.45;38.29
37710;BME280;60223;34.854;-92.408;2023-03-05T05:46:16;100925.74;;;19.82;37.64
37710;BME280;60223;34.854;-92.408;2023-03-05T05:48:38;100929.81;;;19.36;37.89
37710;BME280;60223;34.854;-92.408;2023-03-05T05:51:09;100924.00;;;19.49;37.60
37710;BME280;60223;34.854;-92.408;2023-03-05T05:53:28;100924.78;;;19.62;37.50
37710;BME280;60223;34.854;-92.408;2023-03-05T05:55:56;100924.86;;;19.69;37.23
37710;BME280;60223;34.854;-92.408;2023-03-05T05:58:21;100923.93;;;19.68;37.36
37710;BME280;60223;34.854;-92.408;2023-03-05T06:00:47;100926.15;;;19.64;37.62
37710;BME280;60223;34.854;-92.408;2023-03-05T06:03:13;100927.42;;;19.25;37.57
37710;BME280;60223;34.854;-92.408;2023-03-05T06:05:37;100928.33;;;19.86;37.64
37710;BME280;60223;34.854;-92.408;2023-03-05T06:08:04;100925.52;;;19.98;37.45
37710;BME280;60223;34.854;-92.408;2023-03-05T06:10:30;100926.84;;;19.38;37.59
37710;BME280;60223;34.854;-92.408;2023-03-05T06:12:55;100927.02;;;19.40;37.53
37710;BME280;60223;34.854;-92.408;2023-03-05T06:15:21;100928.22;;;19.82;37.59
37710;BME280;60223;34.854;-92.408;2023-03-05T06:17:46;100932.06;;;19.60;37.55
37710;BME280;60223;34.854;-92.408;2023-03-05T06:20:12;100932.74;;;19.10;37.83
37710;BME280;60223;34.854;-92.408;2023-03-05T06:22:39;100937.79;;;19.77;37.51
37710;BME280;60223;34.854;-92.408;2023-03-05T06:25:02;100946.44;;;19.57;37.50
37710;BME280;60223;34.854;-92.408;2023-03-05T06:27:29;100948.63;;;19.30;37.73
37710;BME280;60223;34.854;-92.408;2023-03-05T06:29:54;100955.20;;;19.64;37.58
37710;BME280;60223;34.854;-92.408;2023-03-05T06:32:20;100956.36;;;19.60;37.57
37710;BME280;60223;34.854;-92.408;2023-03-05T06:34:46;100956.22;;;19.37;37.57
37710;BME280;60223;34.854;-92.408;2023-03-05T06:37:09;100956.08;;;19.62;37.52
37710;BME280;60223;34.854;-92.408;2023-03-05T06:39:37;100959.21;;;19.31;37.60
37710;BME280;60223;34.854;-92.408;2023-03-05T06:42:03;100958.46;;;19.41;37.35
37710;BME280;60223;34.854;-92.408;2023-03-05T06:44:28;100958.71;;;19.43;37.46
37710;BME280;60223;34.854;-92.408;2023-03-05T06:46:52;100957.82;;;19.41;37.27
37710;BME280;60223;34.854;-92.408;2023-03-05T06:49:20;100957.64;;;18.96;37.67
37710;BME280;60223;34.854;-92.408;2023-03-05T06:51:45;100958.87;;;19.65;37.33
37710;BME280;60223;34.854;-92.408;2023-03-05T06:54:13;100959.92;;;19.36;37.32
37710;BME280;60223;34.854;-92.408;2023-03-05T06:56:38;100959.75;;;18.96;37.52
37710;BME280;60223;34.854;-92.408;2023-03-05T06:59:02;100960.98;;;19.43;37.18
37710;BME280;60223;34.854;-92.408;2023-03-05T07:01:27;100962.40;;;19.42;37.39
37710;BME280;60223;34.854;-92.408;2023-03-05T07:03:55;100965.09;;;19.63;37.21
37710;BME280;60223;34.854;-92.408;2023-03-05T07:06:20;100967.51;;;18.98;37.27
37710;BME280;60223;34.854;-92.408;2023-03-05T07:08:46;100965.44;;;19.48;37.26
37710;BME280;60223;34.854;-92.408;2023-03-05T07:11:13;100966.60;;;18.97;37.27
37710;BME280;60223;34.854;-92.408;2023-03-05T07:13:37;100968.09;;;19.37;37.05
37710;BME280;60223;34.854;-92.408;2023-03-05T07:16:04;100967.88;;;19.53;37.09
37710;BME280;60223;34.854;-92.408;2023-03-05T07:18:28;100968.85;;;19.47;37.09
37710;BME280;60223;34.854;-92.408;2023-03-05T07:20:54;100970.84;;;18.97;37.17
37710;BME280;60223;34.854;-92.408;2023-03-05T07:23:18;100969.36;;;19.20;37.49
37710;BME280;60223;34.854;-92.408;2023-03-05T07:25:45;100966.37;;;19.05;37.27
37710;BME280;60223;34.854;-92.408;2023-03-05T07:28:11;100968.29;;;19.44;37.05
37710;BME280;60223;34.854;-92.408;2023-03-05T07:30:37;100970.35;;;19.46;36.98
37710;BME280;60223;34.854;-92.408;2023-03-05T07:33:01;100968.85;;;19.47;36.86
37710;BME280;60223;34.854;-92.408;2023-03-05T07:35:28;100968.29;;;19.15;36.93
37710;BME280;60223;34.854;-92.408;2023-03-05T07:37:54;100967.13;;;19.31;36.75
37710;BME280;60223;34.854;-92.408;2023-03-05T07:40:17;100960.60;;;19.23;36.79
37710;BME280;60223;34.854;-92.408;2023-03-05T07:42:45;100961.65;;;19.31;36.64
37710;BME280;60223;34.854;-92.408;2023-03-05T07:45:11;100961.07;;;19.40;36.90
37710;BME280;60223;34.854;-92.408;2023-03-05T07:47:37;100964.01;;;19.32;36.90
37710;BME280;60223;34.854;-92.408;2023-03-05T07:50:01;100958.00;;;19.01;36.92
37710;BME280;60223;34.854;-92.408;2023-03-05T07:52:28;100958.65;;;19.37;36.75
37710;BME280;60223;34.854;-92.408;2023-03-05T07:54:54;100955.50;;;19.52;36.90
37710;BME280;60223;34.854;-92.408;2023-03-05T07:57:19;100956.69;;;19.39;36.64
37710;BME280;60223;34.854;-92.408;2023-03-05T07:59:45;100957.31;;;19.20;36.92
37710;BME280;60223;34.854;-92.408;2023-03-05T08:02:11;100955.18;;;19.15;36.93
37710;BME280;60223;34.854;-92.408;2023-03-05T08:04:37;100954.83;;;19.43;36.87
37710;BME280;60223;34.854;-92.408;2023-03-05T08:07:02;100948.82;;;19.21;36.80
37710;BME280;60223;34.854;-92.408;2023-03-05T08:09:28;100944.49;;;19.06;36.99
37710;BME280;60223;34.854;-92.408;2023-03-05T08:11:54;100944.28;;;19.21;36.74
37710;BME280;60223;34.854;-92.408;2023-03-05T08:14:20;100942.91;;;19.35;36.83
37710;BME280;60223;34.854;-92.408;2023-03-05T08:16:45;100945.47;;;18.95;36.98
37710;BME280;60223;34.854;-92.408;2023-03-05T08:19:13;100944.88;;;19.05;36.77
37710;BME280;60223;34.854;-92.408;2023-03-05T08:21:38;100943.75;;;18.88;36.96
37710;BME280;60223;34.854;-92.408;2023-03-05T08:24:03;100945.38;;;19.09;36.95
37710;BME280;60223;34.854;-92.408;2023-03-05T08:26:30;100938.84;;;19.00;36.75
37710;BME280;60223;34.854;-92.408;2023-03-05T08:28:54;100943.25;;;18.95;37.13
37710;BME280;60223;34.854;-92.408;2023-03-05T08:31:22;100942.20;;;18.91;37.14
37710;BME280;60223;34.854;-92.408;2023-03-05T08:33:45;100944.78;;;18.94;37.02
37710;BME280;60223;34.854;-92.408;2023-03-05T08:36:12;100945.60;;;18.98;36.99
37710;BME280;60223;34.854;-92.408;2023-03-05T08:38:37;100946.12;;;18.74;36.94
37710;BME280;60223;34.854;-92.408;2023-03-05T08:41:01;100943.69;;;18.95;36.96
37710;BME280;60223;34.854;-92.408;2023-03-05T08:43:28;100942.87;;;18.84;37.05
37710;BME280;60223;34.854;-92.408;2023-03-05T08:45:54;100942.71;;;18.35;36.99
37710;BME280;60223;34.854;-92.408;2023-03-05T08:48:19;100940.45;;;19.03;36.75
37710;BME280;60223;34.854;-92.408;2023-03-05T08:50:45;100940.59;;;18.89;37.13
37710;BME280;60223;34.854;-92.408;2023-03-05T08:53:10;100941.77;;;18.67;36.88
37710;BME280;60223;34.854;-92.408;2023-03-05T08:55:36;100944.28;;;18.71;36.80
37710;BME280;60223;34.854;-92.408;2023-03-05T08:58:02;100951.60;;;18.50;36.97
37710;BME280;60223;34.854;-92.408;2023-03-05T09:00:28;100955.45;;;18.67;36.98
37710;BME280;60223;34.854;-92.408;2023-03-05T09:02:54;100956.51;;;18.77;36.91
37710;BME280;60223;34.854;-92.408;2023-03-05T09:05:20;100958.15;;;18.79;36.80
37710;BME280;60223;34.854;-92.408;2023-03-05T09:07:46;100960.77;;;18.58;37.02
37710;BME280;60223;34.854;-92.408;2023-03-05T09:10:11;100959.18;;;18.54;36.79
37710;BME280;60223;34.854;-92.408;2023-03-05T09:12:37;100961.39;;;18.77;36.87
37710;BME280;60223;34.854;-92.408;2023-03-05T09:15:02;100961.95;;;19.15;36.53
37710;BME280;60223;34.854;-92.408;2023-03-05T09:17:26;100958.81;;;18.71;36.80
37710;BME280;60223;34.854;-92.408;2023-03-05T09:19:54;100958.56;;;18.37;36.90
37710;BME280;60223;34.854;-92.408;2023-03-05T09:22:20;100960.28;;;18.78;36.82
37710;BME280;60223;34.854;-92.408;2023-03-05T09:24:44;100955.95;;;18.82;36.49
37710;BME280;60223;34.854;-92.408;2023-03-05T09:27:11;100959.49;;;18.80;36.86
37710;BME280;60223;34.854;-92.408;2023-03-05T09:29:37;100959.35;;;18.57;36.38
37710;BME280;60223;34.854;-92.408;2023-03-05T09:32:03;100959.26;;;18.55;36.78
37710;BME280;60223;34.854;-92.408;2023-03-05T09:34:26;100960.43;;;18.59;36.79
37710;BME280;60223;34.854;-92.408;2023-03-05T09:36:54;100958.56;;;18.52;36.81
37710;BME280;60223;34.854;-92.408;2023-03-05T09:39:20;100961.84;;;18.43;36.52
37710;BME280;60223;34.854;-92.408;2023-03-05T09:42:02;100961.94;;;18.62;36.54
37710;BME280;60223;34.854;-92.408;2023-03-05T09:44:22;100966.63;;;18.61;36.63
37710;BME280;60223;34.854;-92.408;2023-03-05T09:46:47;100971.48;;;18.71;36.73
37710;BME280;60223;34.854;-92.408;2023-03-05T09:49:11;100972.27;;;18.60;36.61
37710;BME280;60223;34.854;-92.408;2023-03-05T09:51:28;100973.20;;;18.39;36.84
37710;BME280;60223;34.854;-92.408;2023-03-05T09:53:59;100968.38;;;18.90;36.36
37710;BME280;60223;34.854;-92.408;2023-03-05T09:56:23;100972.87;;;18.56;36.81
37710;BME280;60223;34.854;-92.408;2023-03-05T09:58:47;100972.65;;;18.43;36.53
37710;BME280;60223;34.854;-92.408;2023-03-05T10:01:14;100974.41;;;18.55;36.83
37710;BME280;60223;34.854;-92.408;2023-03-05T10:03:47;100971.09;;;18.56;36.41
37710;BME280;60223;34.854;-92.408;2023-03-05T10:06:10;100978.22;;;18.53;36.76
37710;BME280;60223;34.854;-92.408;2023-03-05T10:08:32;100973.02;;;18.38;36.45
37710;BME280;60223;34.854;-92.408;2023-03-05T10:10:56;100972.01;;;18.20;36.77
37710;BME280;60223;34.854;-92.408;2023-03-05T10:13:26;100970.99;;;18.47;36.65
37710;BME280;60223;34.854;-92.408;2023-03-05T10:15:50;100970.37;;;18.55;36.51
37710;BME280;60223;34.854;-92.408;2023-03-05T10:18:18;100972.30;;;18.51;36.56
37710;BME280;60223;34.854;-92.408;2023-03-05T10:20:48;100969.19;;;18.43;36.59
37710;BME280;60223;34.854;-92.408;2023-03-05T10:23:13;100968.49;;;18.02;36.76
37710;BME280;60223;34.854;-92.408;2023-03-05T10:25:39;100969.09;;;18.15;36.60
37710;BME280;60223;34.854;-92.408;2023-03-05T10:27:59;100970.62;;;18.62;36.34
37710;BME280;60223;34.854;-92.408;2023-03-05T10:30:31;100968.42;;;18.46;36.54
37710;BME280;60223;34.854;-92.408;2023-03-05T10:32:51;100964.12;;;18.35;36.55
37710;BME280;60223;34.854;-92.408;2023-03-05T10:35:22;100963.19;;;18.43;36.46
37710;BME280;60223;34.854;-92.408;2023-03-05T10:40:06;100966.80;;;18.21;36.70
37710;BME280;60223;34.854;-92.408;2023-03-05T10:42:33;100970.22;;;18.14;36.44
37710;BME280;60223;34.854;-92.408;2023-03-05T10:44:58;100972.58;;;18.29;36.49
37710;BME280;60223;34.854;-92.408;2023-03-05T10:47:25;100968.11;;;18.03;36.48
37710;BME280;60223;34.854;-92.408;2023-03-05T10:49:50;100967.00;;;18.36;36.41
37710;BME280;60223;34.854;-92.408;2023-03-05T10:52:17;100964.79;;;18.50;36.22
37710;BME280;60223;34.854;-92.408;2023-03-05T10:54:38;100960.48;;;18.32;36.41
37710;BME280;60223;34.854;-92.408;2023-03-05T10:57:12;100959.59;;;18.01;36.47
37710;BME280;60223;34.854;-92.408;2023-03-05T10:59:30;100957.46;;;17.85;36.64
37710;BME280;60223;34.854;-92.408;2023-03-05T11:02:01;100958.52;;;18.34;36.21
37710;BME280;60223;34.854;-92.408;2023-03-05T11:04:26;100960.03;;;18.13;36.48
37710;BME280;60223;34.854;-92.408;2023-03-05T11:06:46;100960.28;;;18.13;36.44
37710;BME280;60223;34.854;-92.408;2023-03-05T11:09:23;100960.08;;;18.14;36.46
37710;BME280;60223;34.854;-92.408;2023-03-05T11:11:37;100957.91;;;17.81;36.51
37710;BME280;60223;34.854;-92.408;2023-03-05T11:14:08;100960.80;;;18.21;36.35
37710;BME280;60223;34.854;-92.408;2023-03-05T11:16:30;100961.60;;;17.98;36.50
37710;BME280;60223;34.854;-92.408;2023-03-05T11:21:23;100962.79;;;17.77;36.36
37710;BME280;60223;34.854;-92.408;2023-03-05T11:26:18;100966.21;;;17.79;36.61
37710;BME280;60223;34.854;-92.408;2023-03-05T11:28:39;100972.74;;;17.58;36.93
37710;BME280;60223;34.854;-92.408;2023-03-05T11:31:07;100977.44;;;17.94;36.40
37710;BME280;60223;34.854;-92.408;2023-03-05T11:33:30;100977.80;;;17.98;36.21
37710;BME280;60223;34.854;-92.408;2023-03-05T11:38:21;100981.62;;;18.18;36.28
37710;BME280;60223;34.854;-92.408;2023-03-05T11:40:47;100979.76;;;18.21;35.96
37710;BME280;60223;34.854;-92.408;2023-03-05T11:43:16;100978.27;;;17.91;36.25
37710;BME280;60223;34.854;-92.408;2023-03-05T11:45:37;100980.50;;;17.91;36.30
37710;BME280;60223;34.854;-92.408;2023-03-05T11:48:08;100984.80;;;17.87;35.97
37710;BME280;60223;34.854;-92.408;2023-03-05T11:50:29;100988.54;;;17.92;36.20
37710;BME280;60223;34.854;-92.408;2023-03-05T11:52:58;100993.65;;;18.09;35.91
37710;BME280;60223;34.854;-92.408;2023-03-05T11:55:24;100994.56;;;17.74;36.36
37710;BME280;60223;34.854;-92.408;2023-03-05T11:57:52;100993.59;;;17.76;36.34
37710;BME280;60223;34.854;-92.408;2023-03-05T12:00:18;100989.12;;;17.99;35.98
37710;BME280;60223;34.854;-92.408;2023-03-05T12:02:37;100983.46;;;17.86;36.47
37710;BME280;60223;34.854;-92.408;2023-03-05T12:05:05;100980.11;;;17.72;36.56
37710;BME280;60223;34.854;-92.408;2023-03-05T12:07:36;100980.87;;;17.94;36.26
37710;BME280;60223;34.854;-92.408;2023-03-05T12:09:56;100981.41;;;17.68;36.24
37710;BME280;60223;34.854;-92.408;2023-03-05T12:12:32;100983.09;;;17.44;36.54
37710;BME280;60223;34.854;-92.408;2023-03-05T12:14:50;100981.68;;;17.37;36.58
37710;BME280;60223;34.854;-92.408;2023-03-05T12:17:19;100980.45;;;17.58;36.31
37710;BME280;60223;34.854;-92.408;2023-03-05T12:19:46;100980.29;;;17.54;36.38
37710;BME280;60223;34.854;-92.408;2023-03-05T12:24:36;100986.99;;;17.76;35.99
37710;BME280;60223;34.854;-92.408;2023-03-05T12:29:29;100995.01;;;17.70;36.30
37710;BME280;60223;34.854;-92.408;2023-03-05T12:31:48;100997.22;;;17.11;36.69
37710;BME280;60223;34.854;-92.408;2023-03-05T12:36:39;101008.58;;;18.19;35.83
37710;BME280;60223;34.854;-92.408;2023-03-05T12:41:36;101012.09;;;16.76;37.66
37710;BME280;60223;34.854;-92.408;2023-03-05T12:46:27;101021.35;;;16.07;38.16
37710;BME280;60223;34.854;-92.408;2023-03-05T12:48:49;101029.87;;;16.39;37.73
37710;BME280;60223;34.854;-92.408;2023-03-05T12:53:40;101033.01;;;17.03;37.10
37710;BME280;60223;34.854;-92.408;2023-03-05T12:56:12;101038.98;;;17.22;37.14
37710;BME280;60223;34.854;-92.408;2023-03-05T12:58:38;101045.11;;;17.13;36.86